sensor_id;sensor_type;location;lat;lon;timestamp;P1;durP1;ratioP1;P2;durP2;ratioP2
49296;SDS011;35163;48.878;18.040;2024-03-23T00:53:54;28.55;;;16.60;;
49296;SDS011;35163;48.878;18.040;2024-03-23T00:56:19;27.15;;;16.40;;
49296;SDS011;35163;48.878;18.040;2024-03-23T00:58:45;28.98;;;17.40;;
49296;SDS011;35163;48.878;18.040;2024-03-23T01:01:10;31.13;;;17.17;;
49296;SDS011;35163;48.878;18.040;2024-03-23T01:03:36;31.10;;;18.33;;
49296;SDS011;35163;48.878;18.040;2024-03-23T01:06:02;29.60;;;16.45;;
49296;SDS011;35163;48.878;18.040;2024-03-23T01:08:29;28.00;;;16.75;;
49296;SDS011;35163;48.878;18.040;2024-03-23T01:10:58;32.67;;;18.60;;
49296;SDS011;35163;48.878;18.040;2024-03-23T01:13:25;28.80;;;17.80;;
49296;SDS011;35163;48.878;18.040;2024-03-23T01:15:51;29.75;;;17.80;;
49296;SDS011;35163;48.878;18.040;2024-03-23T01:18:19;27.83;;;16.73;;
49296;SDS011;35163;48.878;18.040;2024-03-23T01:20:45;28.23;;;17.40;;
49296;SDS011;35163;48.878;18.040;2024-03-23T01:23:11;31.85;;;17.48;;
49296;SDS011;35163;48.878;18.040;2024-03-23T01:25:36;26.58;;;16.65;;
49296;SDS011;35163;48.878;18.040;2024-03-23T01:28:02;30.88;;;17.25;;
49296;SDS011;35163;48.878;18.040;2024-03-23T01:30:28;27.55;;;16.65;;
49296;SDS011;35163;48.878;18.040;2024-03-23T01:32:54;27.48;;;16.95;;
49296;SDS011;35163;48.878;18.040;2024-03-23T01:35:19;29.55;;;17.67;;
49296;SDS011;35163;48.878;18.040;2024-03-23T01:37:45;31.60;;;18.20;;
49296;SDS011;35163;48.878;18.040;2024-03-23T01:40:11;29.25;;;16.80;;
49296;SDS011;35163;48.878;18.040;2024-03-23T01:42:39;33.33;;;17.15;;
49296;SDS011;35163;48.878;18.040;2024-03-23T01:45:06;27.23;;;16.23;;
49296;SDS011;35163;48.878;18.040;2024-03-23T01:47:37;28.30;;;16.02;;
49296;SDS011;35163;48.878;18.040;2024-03-23T01:50:02;32.50;;;16.73;;
49296;SDS011;35163;48.878;18.040;2024-03-23T01:52:28;28.38;;;17.02;;
49296;SDS011;35163;48.878;18.040;2024-03-23T01:54:55;24.70;;;15.05;;
49296;SDS011;35163;48.878;18.040;2024-03-23T01:57:21;25.85;;;16.08;;
49296;SDS011;35163;48.878;18.040;2024-03-23T01:59:47;28.27;;;16.45;;
49296;SDS011;35163;48.878;18.040;2024-03-23T02:02:13;30.23;;;16.98;;
49296;SDS011;35163;48.878;18.040;2024-03-23T02:04:39;26.98;;;15.80;;
49296;SDS011;35163;48.878;18.040;2024-03-23T02:07:08;27.80;;;16.38;;
49296;SDS011;35163;48.878;18.040;2024-03-23T02:09:33;28.52;;;16.30;;
49296;SDS011;35163;48.878;18.040;2024-03-23T02:12:01;28.08;;;15.45;;
49296;SDS011;35163;48.878;18.040;2024-03-23T02:14:27;31.65;;;16.48;;
49296;SDS011;35163;48.878;18.040;2024-03-23T02:16:53;24.70;;;14.57;;
49296;SDS011;35163;48.878;18.040;2024-03-23T02:19:18;27.42;;;15.23;;
49296;SDS011;35163;48.878;18.040;2024-03-23T02:21:44;25.98;;;14.82;;
49296;SDS011;35163;48.878;18.040;2024-03-23T02:24:09;27.63;;;15.93;;
49296;SDS011;35163;48.878;18.040;2024-03-23T02:26:35;25.52;;;15.18;;
49296;SDS011;35163;48.878;18.040;2024-03-23T02:29:01;24.33;;;14.25;;
49296;SDS011;35163;48.878;18.040;2024-03-23T02:31:26;26.20;;;14.25;;
49296;SDS011;35163;48.878;18.040;2024-03-23T02:33:52;24.92;;;14.93;;
49296;SDS011;35163;48.878;18.040;2024-03-23T02:36:17;26.73;;;14.63;;
49296;SDS011;35163;48.878;18.040;2024-03-23T02:38:43;24.40;;;14.30;;
49296;SDS011;35163;48.878;18.040;2024-03-23T02:41:08;25.48;;;15.93;;
49296;SDS011;35163;48.878;18.040;2024-03-23T02:43:34;25.75;;;14.90;;
49296;SDS011;35163;48.878;18.040;2024-03-23T02:46:00;26.55;;;14.63;;
49296;SDS011;35163;48.878;18.040;2024-03-23T02:48:26;27.73;;;15.20;;
49296;SDS011;35163;48.878;18.040;2024-03-23T02:50:51;28.75;;;15.60;;
49296;SDS011;35163;48.878;18.040;2024-03-23T02:53:19;26.13;;;14.68;;
49296;SDS011;35163;48.878;18.040;2024-03-23T02:55:45;25.23;;;14.52;;
49296;SDS011;35163;48.878;18.040;2024-03-23T02:58:10;31.65;;;14.93;;
49296;SDS011;35163;48.878;18.040;2024-03-23T03:00:36;27.08;;;15.27;;
49296;SDS011;35163;48.878;18.040;2024-03-23T03:03:02;26.77;;;14.73;;
49296;SDS011;35163;48.878;18.040;2024-03-23T03:05:28;29.98;;;14.48;;
49296;SDS011;35163;48.878;18.040;2024-03-23T03:07:54;25.17;;;14.50;;
49296;SDS011;35163;48.878;18.040;2024-03-23T03:10:19;24.83;;;15.00;;
49296;SDS011;35163;48.878;18.040;2024-03-23T03:12:45;27.88;;;15.18;;
49296;SDS011;35163;48.878;18.040;2024-03-23T03:15:11;26.95;;;15.40;;
49296;SDS011;35163;48.878;18.040;2024-03-23T03:17:36;24.95;;;14.07;;
49296;SDS011;35163;48.878;18.040;2024-03-23T03:20:02;32.80;;;16.23;;
49296;SDS011;35163;48.878;18.040;2024-03-23T03:22:30;29.00;;;17.00;;
49296;SDS011;35163;48.878;18.040;2024-03-23T03:24:55;30.92;;;17.40;;
49296;SDS011;35163;48.878;18.040;2024-03-23T03:27:21;28.55;;;17.10;;
49296;SDS011;35163;48.878;18.040;2024-03-23T03:29:47;32.92;;;18.92;;
49296;SDS011;35163;48.878;18.040;2024-03-23T03:32:13;33.63;;;18.48;;
49296;SDS011;35163;48.878;18.040;2024-03-23T03:34:39;35.80;;;18.95;;
49296;SDS011;35163;48.878;18.040;2024-03-23T03:37:04;34.53;;;18.63;;
49296;SDS011;35163;48.878;18.040;2024-03-23T03:39:30;35.03;;;19.35;;
49296;SDS011;35163;48.878;18.040;2024-03-23T03:41:55;32.90;;;18.73;;
49296;SDS011;35163;48.878;18.040;2024-03-23T03:44:21;31.02;;;17.58;;
49296;SDS011;35163;48.878;18.040;2024-03-23T03:46:47;33.45;;;18.15;;
49296;SDS011;35163;48.878;18.040;2024-03-23T03:49:12;28.40;;;17.13;;
49296;SDS011;35163;48.878;18.040;2024-03-23T03:51:38;31.25;;;16.75;;
49296;SDS011;35163;48.878;18.040;2024-03-23T03:54:03;32.53;;;16.67;;
49296;SDS011;35163;48.878;18.040;2024-03-23T03:56:29;29.55;;;16.80;;
49296;SDS011;35163;48.878;18.040;2024-03-23T03:58:55;32.35;;;17.30;;
49296;SDS011;35163;48.878;18.040;2024-03-23T04:01:20;27.88;;;16.48;;
49296;SDS011;35163;48.878;18.040;2024-03-23T04:03:46;28.10;;;15.35;;
49296;SDS011;35163;48.878;18.040;2024-03-23T04:06:11;28.95;;;15.57;;
49296;SDS011;35163;48.878;18.040;2024-03-23T04:08:37;27.42;;;16.13;;
49296;SDS011;35163;48.878;18.040;2024-03-23T04:11:03;29.83;;;16.17;;
49296;SDS011;35163;48.878;18.040;2024-03-23T04:13:29;28.65;;;16.42;;
49296;SDS011;35163;48.878;18.040;2024-03-23T04:15:54;31.15;;;17.55;;
49296;SDS011;35163;48.878;18.040;2024-03-23T04:18:21;33.03;;;18.85;;
49296;SDS011;35163;48.878;18.040;2024-03-23T04:20:47;29.42;;;17.02;;
49296;SDS011;35163;48.878;18.040;2024-03-23T04:23:14;28.25;;;17.45;;
49296;SDS011;35163;48.878;18.040;2024-03-23T04:25:39;29.58;;;17.60;;
49296;SDS011;35163;48.878;18.040;2024-03-23T04:28:05;32.22;;;17.10;;
49296;SDS011;35163;48.878;18.040;2024-03-23T04:30:31;35.92;;;18.88;;
49296;SDS011;35163;48.878;18.040;2024-03-23T04:32:57;33.15;;;19.77;;
49296;SDS011;35163;48.878;18.040;2024-03-23T04:35:24;32.30;;;18.90;;
49296;SDS011;35163;48.878;18.040;2024-03-23T04:37:55;29.25;;;16.50;;
49296;SDS011;35163;48.878;18.040;2024-03-23T04:40:21;26.85;;;15.63;;
49296;SDS011;35163;48.878;18.040;2024-03-23T04:42:47;26.17;;;14.80;;
49296;SDS011;35163;48.878;18.040;2024-03-23T04:45:12;26.15;;;15.43;;
49296;SDS011;35163;48.878;18.040;2024-03-23T04:47:38;28.95;;;15.25;;
49296;SDS011;35163;48.878;18.040;2024-03-23T04:50:04;26.15;;;15.38;;
49296;SDS011;35163;48.878;18.040;2024-03-23T04:52:30;25.98;;;15.88;;
49296;SDS011;35163;48.878;18.040;2024-03-23T04:54:56;28.65;;;16.42;;
49296;SDS011;35163;48.878;18.040;2024-03-23T04:57:22;30.13;;;16.77;;
49296;SDS011;35163;48.878;18.040;2024-03-23T04:59:47;29.83;;;16.55;;
49296;SDS011;35163;48.878;18.040;2024-03-23T05:02:13;31.45;;;17.67;;
49296;SDS011;35163;48.878;18.040;2024-03-23T05:04:40;27.75;;;17.38;;
49296;SDS011;35163;48.878;18.040;2024-03-23T05:07:06;37.20;;;18.40;;
49296;SDS011;35163;48.878;18.040;2024-03-23T05:09:32;30.63;;;18.63;;
49296;SDS011;35163;48.878;18.040;2024-03-23T05:12:01;31.67;;;18.70;;
49296;SDS011;35163;48.878;18.040;2024-03-23T05:14:27;30.05;;;18.10;;
49296;SDS011;35163;48.878;18.040;2024-03-23T05:16:53;32.45;;;18.42;;
49296;SDS011;35163;48.878;18.040;2024-03-23T05:19:19;27.92;;;16.40;;
49296;SDS011;35163;48.878;18.040;2024-03-23T05:21:45;31.13;;;16.67;;
49296;SDS011;35163;48.878;18.040;2024-03-23T05:24:11;30.08;;;16.52;;
49296;SDS011;35163;48.878;18.040;2024-03-23T05:26:37;27.27;;;15.60;;
49296;SDS011;35163;48.878;18.040;2024-03-23T05:29:03;25.45;;;14.85;;
49296;SDS011;35163;48.878;18.040;2024-03-23T05:31:30;26.10;;;15.35;;
49296;SDS011;35163;48.878;18.040;2024-03-23T05:33:56;26.52;;;14.80;;
49296;SDS011;35163;48.878;18.040;2024-03-23T05:36:22;31.02;;;15.77;;
49296;SDS011;35163;48.878;18.040;2024-03-23T05:38:49;27.00;;;16.02;;
49296;SDS011;35163;48.878;18.040;2024-03-23T05:41:15;29.10;;;15.30;;
49296;SDS011;35163;48.878;18.040;2024-03-23T05:43:41;28.55;;;15.68;;
49296;SDS011;35163;48.878;18.040;2024-03-23T05:46:07;30.55;;;15.57;;
49296;SDS011;35163;48.878;18.040;2024-03-23T05:48:35;30.70;;;15.77;;
49296;SDS011;35163;48.878;18.040;2024-03-23T05:51:01;32.17;;;18.30;;
49296;SDS011;35163;48.878;18.040;2024-03-23T05:53:27;30.25;;;17.60;;
49296;SDS011;35163;48.878;18.040;2024-03-23T05:56:02;33.75;;;19.90;;
49296;SDS011;35163;48.878;18.040;2024-03-23T05:58:31;32.83;;;19.63;;
49296;SDS011;35163;48.878;18.040;2024-03-23T06:00:58;33.95;;;20.38;;
49296;SDS011;35163;48.878;18.040;2024-03-23T06:03:25;35.75;;;20.25;;
49296;SDS011;35163;48.878;18.040;2024-03-23T06:05:51;35.92;;;19.80;;
49296;SDS011;35163;48.878;18.040;2024-03-23T06:08:18;43.20;;;23.45;;
49296;SDS011;35163;48.878;18.040;2024-03-23T06:10:45;40.25;;;21.98;;
49296;SDS011;35163;48.878;18.040;2024-03-23T06:13:11;38.35;;;20.30;;
49296;SDS011;35163;48.878;18.040;2024-03-23T06:15:37;37.63;;;19.38;;
49296;SDS011;35163;48.878;18.040;2024-03-23T06:18:03;35.90;;;19.17;;
49296;SDS011;35163;48.878;18.040;2024-03-23T06:20:33;37.58;;;19.65;;
49296;SDS011;35163;48.878;18.040;2024-03-23T06:22:59;32.47;;;19.45;;
49296;SDS011;35163;48.878;18.040;2024-03-23T06:25:26;34.00;;;18.27;;
49296;SDS011;35163;48.878;18.040;2024-03-23T06:27:52;28.25;;;17.60;;
49296;SDS011;35163;48.878;18.040;2024-03-23T06:30:17;29.52;;;16.88;;
49296;SDS011;35163;48.878;18.040;2024-03-23T06:32:43;32.95;;;16.63;;
49296;SDS011;35163;48.878;18.040;2024-03-23T06:35:08;28.23;;;15.63;;
49296;SDS011;35163;48.878;18.040;2024-03-23T06:37:37;28.25;;;16.55;;
49296;SDS011;35163;48.878;18.040;2024-03-23T06:40:04;29.00;;;15.48;;
49296;SDS011;35163;48.878;18.040;2024-03-23T06:42:33;29.80;;;16.33;;
49296;SDS011;35163;48.878;18.040;2024-03-23T06:44:59;29.65;;;16.45;;
49296;SDS011;35163;48.878;18.040;2024-03-23T06:47:25;26.73;;;16.90;;
49296;SDS011;35163;48.878;18.040;2024-03-23T06:49:50;30.58;;;16.48;;
49296;SDS011;35163;48.878;18.040;2024-03-23T06:52:16;37.05;;;16.17;;
49296;SDS011;35163;48.878;18.040;2024-03-23T06:54:42;26.63;;;15.50;;
49296;SDS011;35163;48.878;18.040;2024-03-23T06:57:10;28.58;;;16.67;;
49296;SDS011;35163;48.878;18.040;2024-03-23T06:59:37;27.20;;;16.30;;
49296;SDS011;35163;48.878;18.040;2024-03-23T07:02:04;31.50;;;16.20;;
49296;SDS011;35163;48.878;18.040;2024-03-23T07:04:34;30.05;;;16.60;;
49296;SDS011;35163;48.878;18.040;2024-03-23T07:07:00;30.70;;;15.85;;
49296;SDS011;35163;48.878;18.040;2024-03-23T07:09:27;25.30;;;13.90;;
49296;SDS011;35163;48.878;18.040;2024-03-23T07:11:54;28.50;;;14.85;;
49296;SDS011;35163;48.878;18.040;2024-03-23T07:14:21;26.85;;;15.68;;
49296;SDS011;35163;48.878;18.040;2024-03-23T07:16:47;24.65;;;14.70;;
49296;SDS011;35163;48.878;18.040;2024-03-23T07:19:14;25.52;;;14.85;;
49296;SDS011;35163;48.878;18.040;2024-03-23T07:21:42;25.42;;;14.65;;
49296;SDS011;35163;48.878;18.040;2024-03-23T07:24:08;25.60;;;14.63;;
49296;SDS011;35163;48.878;18.040;2024-03-23T07:26:34;26.70;;;15.15;;
49296;SDS011;35163;48.878;18.040;2024-03-23T07:28:59;28.55;;;15.77;;
49296;SDS011;35163;48.878;18.040;2024-03-23T07:31:25;26.70;;;15.68;;
49296;SDS011;35163;48.878;18.040;2024-03-23T07:33:50;24.45;;;14.57;;
49296;SDS011;35163;48.878;18.040;2024-03-23T07:36:16;28.88;;;16.17;;
49296;SDS011;35163;48.878;18.040;2024-03-23T07:38:45;30.27;;;16.85;;
49296;SDS011;35163;48.878;18.040;2024-03-23T07:41:11;28.20;;;17.33;;
49296;SDS011;35163;48.878;18.040;2024-03-23T07:43:39;29.50;;;18.05;;
49296;SDS011;35163;48.878;18.040;2024-03-23T07:46:06;32.85;;;18.33;;
49296;SDS011;35163;48.878;18.040;2024-03-23T07:48:31;30.73;;;17.55;;
49296;SDS011;35163;48.878;18.040;2024-03-23T07:51:08;37.47;;;19.50;;
49296;SDS011;35163;48.878;18.040;2024-03-23T07:53:35;32.15;;;19.27;;
49296;SDS011;35163;48.878;18.040;2024-03-23T07:56:04;29.08;;;18.02;;
49296;SDS011;35163;48.878;18.040;2024-03-23T07:58:31;31.65;;;17.45;;
49296;SDS011;35163;48.878;18.040;2024-03-23T08:01:03;31.20;;;17.90;;
49296;SDS011;35163;48.878;18.040;2024-03-23T08:03:35;29.00;;;16.73;;
49296;SDS011;35163;48.878;18.040;2024-03-23T08:06:13;27.20;;;16.40;;
49296;SDS011;35163;48.878;18.040;2024-03-23T08:08:40;29.23;;;15.57;;
49296;SDS011;35163;48.878;18.040;2024-03-23T08:11:07;28.52;;;17.30;;
49296;SDS011;35163;48.878;18.040;2024-03-23T08:13:36;29.70;;;16.10;;
49296;SDS011;35163;48.878;18.040;2024-03-23T08:16:04;27.88;;;15.93;;
49296;SDS011;35163;48.878;18.040;2024-03-23T08:18:30;28.25;;;16.55;;
49296;SDS011;35163;48.878;18.040;2024-03-23T08:21:00;27.05;;;16.05;;
49296;SDS011;35163;48.878;18.040;2024-03-23T08:23:31;31.88;;;15.80;;
49296;SDS011;35163;48.878;18.040;2024-03-23T08:26:03;27.35;;;15.45;;
49296;SDS011;35163;48.878;18.040;2024-03-23T08:28:31;26.20;;;16.15;;
49296;SDS011;35163;48.878;18.040;2024-03-23T08:31:00;26.77;;;16.15;;
49296;SDS011;35163;48.878;18.040;2024-03-23T08:33:27;28.83;;;16.83;;
49296;SDS011;35163;48.878;18.040;2024-03-23T08:35:54;29.15;;;16.50;;
49296;SDS011;35163;48.878;18.040;2024-03-23T08:38:21;26.63;;;16.77;;
49296;SDS011;35163;48.878;18.040;2024-03-23T08:40:47;26.40;;;15.48;;
49296;SDS011;35163;48.878;18.040;2024-03-23T08:43:13;27.65;;;16.17;;
49296;SDS011;35163;48.878;18.040;2024-03-23T08:45:39;27.60;;;16.63;;
49296;SDS011;35163;48.878;18.040;2024-03-23T08:48:04;33.90;;;16.73;;
49296;SDS011;35163;48.878;18.040;2024-03-23T08:50:30;25.17;;;15.18;;
49296;SDS011;35163;48.878;18.040;2024-03-23T08:52:56;26.75;;;15.88;;
49296;SDS011;35163;48.878;18.040;2024-03-23T08:55:21;26.17;;;15.27;;
49296;SDS011;35163;48.878;18.040;2024-03-23T08:57:47;26.88;;;15.38;;
49296;SDS011;35163;48.878;18.040;2024-03-23T09:00:13;26.42;;;15.63;;
49296;SDS011;35163;48.878;18.040;2024-03-23T09:02:39;25.73;;;15.45;;
49296;SDS011;35163;48.878;18.040;2024-03-23T09:05:05;26.20;;;15.20;;
49296;SDS011;35163;48.878;18.040;2024-03-23T09:07:31;28.77;;;15.98;;
49296;SDS011;35163;48.878;18.040;2024-03-23T09:09:57;26.70;;;15.48;;
49296;SDS011;35163;48.878;18.040;2024-03-23T09:12:23;27.67;;;15.43;;
49296;SDS011;35163;48.878;18.040;2024-03-23T09:14:49;30.73;;;15.02;;
49296;SDS011;35163;48.878;18.040;2024-03-23T09:17:15;28.00;;;14.18;;
49296;SDS011;35163;48.878;18.040;2024-03-23T09:19:41;25.60;;;15.60;;
49296;SDS011;35163;48.878;18.040;2024-03-23T09:22:06;24.67;;;14.57;;
49296;SDS011;35163;48.878;18.040;2024-03-23T09:24:32;24.80;;;14.68;;
49296;SDS011;35163;48.878;18.040;2024-03-23T09:26:58;22.42;;;13.60;;
49296;SDS011;35163;48.878;18.040;2024-03-23T09:29:23;20.75;;;13.05;;
49296;SDS011;35163;48.878;18.040;2024-03-23T09:31:49;22.35;;;14.15;;
49296;SDS011;35163;48.878;18.040;2024-03-23T09:34:15;24.92;;;12.75;;
49296;SDS011;35163;48.878;18.040;2024-03-23T09:36:40;27.02;;;14.60;;
49296;SDS011;35163;48.878;18.040;2024-03-23T09:39:06;24.67;;;13.57;;
49296;SDS011;35163;48.878;18.040;2024-03-23T09:41:34;26.02;;;13.30;;
49296;SDS011;35163;48.878;18.040;2024-03-23T09:44:01;20.90;;;12.70;;
49296;SDS011;35163;48.878;18.040;2024-03-23T09:46:27;23.38;;;13.88;;
49296;SDS011;35163;48.878;18.040;2024-03-23T09:48:55;25.67;;;12.90;;
49296;SDS011;35163;48.878;18.040;2024-03-23T09:51:21;25.92;;;13.95;;
49296;SDS011;35163;48.878;18.040;2024-03-23T09:53:49;23.85;;;13.20;;
49296;SDS011;35163;48.878;18.040;2024-03-23T09:56:15;24.65;;;14.32;;
49296;SDS011;35163;48.878;18.040;2024-03-23T09:58:42;24.00;;;14.98;;
49296;SDS011;35163;48.878;18.040;2024-03-23T10:01:08;25.92;;;15.27;;
49296;SDS011;35163;48.878;18.040;2024-03-23T10:03:44;23.65;;;14.20;;
49296;SDS011;35163;48.878;18.040;2024-03-23T10:06:11;19.98;;;12.55;;
49296;SDS011;35163;48.878;18.040;2024-03-23T10:08:36;23.25;;;13.68;;
49296;SDS011;35163;48.878;18.040;2024-03-23T10:11:15;22.17;;;12.60;;
49296;SDS011;35163;48.878;18.040;2024-03-23T10:13:42;22.15;;;13.55;;
49296;SDS011;35163;48.878;18.040;2024-03-23T10:16:09;21.60;;;13.25;;
49296;SDS011;35163;48.878;18.040;2024-03-23T10:18:39;22.27;;;14.25;;
49296;SDS011;35163;48.878;18.040;2024-03-23T10:23:31;28.05;;;14.00;;
49296;SDS011;35163;48.878;18.040;2024-03-23T10:26:12;23.38;;;12.82;;
49296;SDS011;35163;48.878;18.040;2024-03-23T10:29:00;17.48;;;11.18;;
49296;SDS011;35163;48.878;18.040;2024-03-23T10:31:27;20.02;;;12.35;;
49296;SDS011;35163;48.878;18.040;2024-03-23T10:33:54;20.92;;;13.40;;
49296;SDS011;35163;48.878;18.040;2024-03-23T10:36:23;18.25;;;12.00;;
49296;SDS011;35163;48.878;18.040;2024-03-23T10:38:51;21.17;;;12.40;;
49296;SDS011;35163;48.878;18.040;2024-03-23T10:41:18;18.50;;;12.00;;
49296;SDS011;35163;48.878;18.040;2024-03-23T10:43:47;22.52;;;13.15;;
49296;SDS011;35163;48.878;18.040;2024-03-23T10:46:14;19.60;;;12.27;;
49296;SDS011;35163;48.878;18.040;2024-03-23T10:48:40;21.42;;;11.50;;
49296;SDS011;35163;48.878;18.040;2024-03-23T10:51:09;22.45;;;13.40;;
49296;SDS011;35163;48.878;18.040;2024-03-23T10:53:36;22.55;;;12.18;;
49296;SDS011;35163;48.878;18.040;2024-03-23T10:56:04;21.13;;;13.27;;
49296;SDS011;35163;48.878;18.040;2024-03-23T10:58:31;22.08;;;13.77;;
49296;SDS011;35163;48.878;18.040;2024-03-23T11:01:03;26.73;;;14.02;;
49296;SDS011;35163;48.878;18.040;2024-03-23T11:03:33;22.55;;;13.65;;
49296;SDS011;35163;48.878;18.040;2024-03-23T11:06:00;18.15;;;11.13;;
49296;SDS011;35163;48.878;18.040;2024-03-23T11:08:29;18.58;;;11.73;;
49296;SDS011;35163;48.878;18.040;2024-03-23T11:13:47;21.25;;;11.43;;
49296;SDS011;35163;48.878;18.040;2024-03-23T11:16:14;17.38;;;10.02;;
49296;SDS011;35163;48.878;18.040;2024-03-23T11:18:41;16.63;;;9.95;;
49296;SDS011;35163;48.878;18.040;2024-03-23T11:21:09;15.77;;;9.18;;
49296;SDS011;35163;48.878;18.040;2024-03-23T11:23:35;14.82;;;9.70;;
49296;SDS011;35163;48.878;18.040;2024-03-23T11:26:00;12.52;;;7.50;;
49296;SDS011;35163;48.878;18.040;2024-03-23T11:28:26;19.10;;;6.70;;
49296;SDS011;35163;48.878;18.040;2024-03-23T11:30:52;16.27;;;8.18;;
49296;SDS011;35163;48.878;18.040;2024-03-23T11:33:17;15.25;;;7.30;;
49296;SDS011;35163;48.878;18.040;2024-03-23T11:35:44;11.88;;;6.63;;
49296;SDS011;35163;48.878;18.040;2024-03-23T11:38:16;13.90;;;7.03;;
49296;SDS011;35163;48.878;18.040;2024-03-23T11:40:46;12.63;;;6.97;;
49296;SDS011;35163;48.878;18.040;2024-03-23T11:43:18;12.25;;;6.47;;
49296;SDS011;35163;48.878;18.040;2024-03-23T11:45:50;13.68;;;6.60;;
49296;SDS011;35163;48.878;18.040;2024-03-23T11:48:24;14.48;;;6.80;;
49296;SDS011;35163;48.878;18.040;2024-03-23T11:50:50;12.00;;;6.20;;
49296;SDS011;35163;48.878;18.040;2024-03-23T11:53:23;10.52;;;5.38;;
49296;SDS011;35163;48.878;18.040;2024-03-23T11:55:50;11.70;;;5.70;;
49296;SDS011;35163;48.878;18.040;2024-03-23T11:58:17;17.70;;;5.85;;
49296;SDS011;35163;48.878;18.040;2024-03-23T12:00:56;19.88;;;7.60;;
49296;SDS011;35163;48.878;18.040;2024-03-23T12:03:27;12.95;;;6.68;;
49296;SDS011;35163;48.878;18.040;2024-03-23T12:06:01;12.48;;;6.43;;
49296;SDS011;35163;48.878;18.040;2024-03-23T12:11:04;10.35;;;5.35;;
49296;SDS011;35163;48.878;18.040;2024-03-23T12:13:31;11.65;;;5.97;;
49296;SDS011;35163;48.878;18.040;2024-03-23T12:16:08;13.50;;;5.60;;
49296;SDS011;35163;48.878;18.040;2024-03-23T12:18:34;14.18;;;6.47;;
49296;SDS011;35163;48.878;18.040;2024-03-23T12:21:00;13.38;;;7.47;;
49296;SDS011;35163;48.878;18.040;2024-03-23T12:23:25;16.75;;;8.20;;
49296;SDS011;35163;48.878;18.040;2024-03-23T12:25:51;19.02;;;8.95;;
49296;SDS011;35163;48.878;18.040;2024-03-23T12:28:16;19.95;;;9.43;;
49296;SDS011;35163;48.878;18.040;2024-03-23T12:30:42;12.45;;;6.80;;
49296;SDS011;35163;48.878;18.040;2024-03-23T12:33:08;13.05;;;7.22;;
49296;SDS011;35163;48.878;18.040;2024-03-23T12:35:33;14.20;;;7.40;;
49296;SDS011;35163;48.878;18.040;2024-03-23T12:37:59;13.00;;;7.22;;
49296;SDS011;35163;48.878;18.040;2024-03-23T12:40:25;12.45;;;6.97;;
49296;SDS011;35163;48.878;18.040;2024-03-23T12:42:52;12.85;;;6.55;;
49296;SDS011;35163;48.878;18.040;2024-03-23T12:45:17;13.75;;;7.60;;
49296;SDS011;35163;48.878;18.040;2024-03-23T12:47:43;15.05;;;8.27;;
49296;SDS011;35163;48.878;18.040;2024-03-23T12:50:09;16.70;;;7.90;;
49296;SDS011;35163;48.878;18.040;2024-03-23T12:52:35;12.95;;;7.00;;
49296;SDS011;35163;48.878;18.040;2024-03-23T12:55:01;12.55;;;6.63;;
49296;SDS011;35163;48.878;18.040;2024-03-23T12:57:28;14.98;;;7.65;;
49296;SDS011;35163;48.878;18.040;2024-03-23T12:59:54;11.40;;;7.05;;
49296;SDS011;35163;48.878;18.040;2024-03-23T13:02:20;11.18;;;6.53;;
49296;SDS011;35163;48.878;18.040;2024-03-23T13:04:46;15.75;;;6.75;;
49296;SDS011;35163;48.878;18.040;2024-03-23T13:07:15;15.20;;;6.85;;
49296;SDS011;35163;48.878;18.040;2024-03-23T13:09:40;10.60;;;5.85;;
49296;SDS011;35163;48.878;18.040;2024-03-23T13:12:06;14.15;;;6.40;;
49296;SDS011;35163;48.878;18.040;2024-03-23T13:14:32;25.13;;;6.10;;
49296;SDS011;35163;48.878;18.040;2024-03-23T13:16:57;12.93;;;5.75;;
49296;SDS011;35163;48.878;18.040;2024-03-23T13:19:23;11.23;;;5.65;;
49296;SDS011;35163;48.878;18.040;2024-03-23T13:21:55;12.23;;;5.82;;
49296;SDS011;35163;48.878;18.040;2024-03-23T13:24:24;12.45;;;6.22;;
49296;SDS011;35163;48.878;18.040;2024-03-23T13:26:51;10.32;;;5.72;;
49296;SDS011;35163;48.878;18.040;2024-03-23T13:29:18;11.70;;;5.10;;
49296;SDS011;35163;48.878;18.040;2024-03-23T13:31:44;10.60;;;5.70;;
49296;SDS011;35163;48.878;18.040;2024-03-23T13:34:10;10.05;;;5.00;;
49296;SDS011;35163;48.878;18.040;2024-03-23T13:36:36;12.45;;;5.57;;
49296;SDS011;35163;48.878;18.040;2024-03-23T13:39:02;10.70;;;5.68;;
49296;SDS011;35163;48.878;18.040;2024-03-23T13:41:38;16.98;;;7.00;;
49296;SDS011;35163;48.878;18.040;2024-03-23T13:44:05;13.15;;;7.65;;
49296;SDS011;35163;48.878;18.040;2024-03-23T13:46:31;21.27;;;8.05;;
49296;SDS011;35163;48.878;18.040;2024-03-23T13:48:57;14.43;;;7.68;;
49296;SDS011;35163;48.878;18.040;2024-03-23T13:51:23;17.65;;;8.75;;
49296;SDS011;35163;48.878;18.040;2024-03-23T13:53:55;15.85;;;8.75;;
49296;SDS011;35163;48.878;18.040;2024-03-23T13:56:22;19.60;;;9.57;;
49296;SDS011;35163;48.878;18.040;2024-03-23T13:58:48;15.15;;;6.75;;
49296;SDS011;35163;48.878;18.040;2024-03-23T14:01:14;19.60;;;4.72;;
49296;SDS011;35163;48.878;18.040;2024-03-23T14:03:40;21.98;;;3.53;;
49296;SDS011;35163;48.878;18.040;2024-03-23T14:06:07;14.25;;;2.55;;
49296;SDS011;35163;48.878;18.040;2024-03-23T14:08:34;5.05;;;1.30;;
49296;SDS011;35163;48.878;18.040;2024-03-23T14:11:07;8.35;;;1.60;;
49296;SDS011;35163;48.878;18.040;2024-03-23T14:13:34;4.55;;;1.70;;
49296;SDS011;35163;48.878;18.040;2024-03-23T14:16:00;5.80;;;2.03;;
49296;SDS011;35163;48.878;18.040;2024-03-23T14:18:27;5.88;;;1.73;;
49296;SDS011;35163;48.878;18.040;2024-03-23T14:20:56;5.97;;;2.22;;
49296;SDS011;35163;48.878;18.040;2024-03-23T14:23:24;7.18;;;2.75;;
49296;SDS011;35163;48.878;18.040;2024-03-23T14:26:00;8.30;;;2.70;;
49296;SDS011;35163;48.878;18.040;2024-03-23T14:28:29;6.88;;;1.95;;
49296;SDS011;35163;48.878;18.040;2024-03-23T14:30:55;2.75;;;1.02;;
49296;SDS011;35163;48.878;18.040;2024-03-23T14:33:21;4.85;;;2.25;;
49296;SDS011;35163;48.878;18.040;2024-03-23T14:35:56;2.42;;;1.20;;
49296;SDS011;35163;48.878;18.040;2024-03-23T14:38:22;2.45;;;1.10;;
49296;SDS011;35163;48.878;18.040;2024-03-23T14:40:48;5.82;;;0.98;;
49296;SDS011;35163;48.878;18.040;2024-03-23T14:43:14;2.00;;;0.95;;
49296;SDS011;35163;48.878;18.040;2024-03-23T14:48:44;2.72;;;0.88;;
49296;SDS011;35163;48.878;18.040;2024-03-23T14:51:11;4.35;;;1.23;;
49296;SDS011;35163;48.878;18.040;2024-03-23T14:53:38;12.40;;;1.30;;
49296;SDS011;35163;48.878;18.040;2024-03-23T14:56:08;4.63;;;1.02;;
49296;SDS011;35163;48.878;18.040;2024-03-23T14:58:35;7.85;;;1.40;;
49296;SDS011;35163;48.878;18.040;2024-03-23T15:03:27;4.65;;;1.42;;
49296;SDS011;35163;48.878;18.040;2024-03-23T15:05:58;4.20;;;1.33;;
49296;SDS011;35163;48.878;18.040;2024-03-23T15:08:25;1.73;;;1.00;;
49296;SDS011;35163;48.878;18.040;2024-03-23T15:10:51;4.97;;;1.10;;
49296;SDS011;35163;48.878;18.040;2024-03-23T15:13:17;3.95;;;1.20;;
49296;SDS011;35163;48.878;18.040;2024-03-23T15:15:43;3.42;;;1.67;;
49296;SDS011;35163;48.878;18.040;2024-03-23T15:18:13;2.90;;;1.50;;